Time;durP1;ratioP1;P1;durP2;ratioP2;P2;SDS_P1;SDS_P2;PMS_P1;PMS_P2;Temp;Humidity;BMP_temperature;BMP_pressure;BME280_temperature;BME280_humidity;BME280_pressure;Samples;Min_cycle;Max_cycle;Signal;HPM_P1;HPM_P2
2022/04/11 00:02:15;;;;;;;2.85;2.60;;;;;;;;;;5023303;28;20018;-69
2022/04/11 00:04:41;;;;;;;6.40;2.53;;;;;;;;;;5015165;28;20022;-69
2022/04/11 00:07:07;;;;;;;6.13;2.40;;;;;;;;;;5022236;28;20088;-69
2022/04/11 00:09:33;;;;;;;4.35;2.40;;;;;;;;;;5018312;28;20441;-69
2022/04/11 00:11:59;;;;;;;4.82;2.63;;;;;;;;;;5022687;28;20030;-69
2022/04/11 00:14:25;;;;;;;6.97;2.20;;;;;;;;;;5015619;28;20688;-68
2022/04/11 00:16:50;;;;;;;3.63;2.90;;;;;;;;;;5018351;28;20104;-69
2022/04/11 00:19:16;;;;;;;7.90;2.45;;;;;;;;;;5021589;28;20037;-69
2022/04/11 00:21:42;;;;;;;3.33;2.50;;;;;;;;;;5016297;28;20080;-69
2022/04/11 00:24:08;;;;;;;2.53;2.33;;;;;;;;;;5015642;28;20025;-69
2022/04/11 00:26:34;;;;;;;9.80;2.78;;;;;;;;;;5015181;28;20659;-69
2022/04/11 00:29:00;;;;;;;3.53;2.38;;;;;;;;;;5019368;28;20038;-68
2022/04/11 00:31:26;;;;;;;8.50;2.40;;;;;;;;;;5020235;28;20116;-69
2022/04/11 00:33:52;;;;;;;4.25;2.63;;;;;;;;;;5018316;28;20731;-69
2022/04/11 00:36:18;;;;;;;2.65;2.45;;;;;;;;;;5021210;28;20041;-68
2022/04/11 00:38:43;;;;;;;2.60;2.35;;;;;;;;;;5023659;28;20013;-69
2022/04/11 00:41:09;;;;;;;4.55;2.40;;;;;;;;;;5017272;28;20478;-69
2022/04/11 00:43:37;;;;;;;3.05;2.20;;;;;;;;;;5017131;28;20095;-69
2022/04/11 00:46:04;;;;;;;4.13;2.17;;;;;;;;;;5019519;28;20026;-70
2022/04/11 00:48:30;;;;;;;7.68;2.63;;;;;;;;;;5019262;28;20509;-69
2022/04/11 00:51:01;;;;;;;3.08;2.78;;;;;;;;;;5019822;28;20060;-69
2022/04/11 00:53:30;;;;;;;4.28;2.13;;;;;;;;;;5021985;28;20041;-69
2022/04/11 00:55:57;;;;;;;3.05;1.92;;;;;;;;;;5016298;28;20116;-69
2022/04/11 00:58:24;;;;;;;5.47;2.00;;;;;;;;;;5020710;28;20021;-69
2022/04/11 01:00:50;;;;;;;5.38;2.28;;;;;;;;;;5014771;28;20367;-69
2022/04/11 01:03:16;;;;;;;3.97;2.05;;;;;;;;;;5018108;28;20041;-69
2022/04/11 01:05:42;;;;;;;2.85;2.50;;;;;;;;;;5020896;28;20027;-69
2022/04/11 01:08:10;;;;;;;3.17;1.90;;;;;;;;;;5016233;28;20572;-69
2022/04/11 01:10:36;;;;;;;4.82;2.25;;;;;;;;;;5016444;28;20043;-69
2022/04/11 01:13:03;;;;;;;2.58;1.90;;;;;;;;;;5013052;28;20026;-69
2022/04/11 01:15:29;;;;;;;4.70;2.20;;;;;;;;;;5016249;28;20046;-69
2022/04/11 01:17:55;;;;;;;2.03;1.83;;;;;;;;;;5022351;28;20057;-69
2022/04/11 01:20:21;;;;;;;4.32;1.98;;;;;;;;;;5017826;28;20449;-68
2022/04/11 01:22:47;;;;;;;9.05;2.15;;;;;;;;;;5020175;28;20030;-69
2022/04/11 01:25:14;;;;;;;3.20;2.00;;;;;;;;;;5014557;28;20406;-70
2022/04/11 01:27:41;;;;;;;3.75;2.03;;;;;;;;;;5020439;28;20183;-69
2022/04/11 01:30:10;;;;;;;2.22;1.90;;;;;;;;;;5017282;28;20534;-69
2022/04/11 01:32:37;;;;;;;3.13;1.55;;;;;;;;;;5014002;28;20041;-69
2022/04/11 01:35:04;;;;;;;2.90;2.17;;;;;;;;;;5012331;28;20096;-70
2022/04/11 01:37:29;;;;;;;3.03;1.60;;;;;;;;;;5019280;28;20101;-69
2022/04/11 01:39:55;;;;;;;7.47;2.10;;;;;;;;;;5017123;28;20128;-69
2022/04/11 01:42:21;;;;;;;2.92;1.80;;;;;;;;;;5015462;28;20025;-69
2022/04/11 01:44:47;;;;;;;3.20;1.83;;;;;;;;;;5020096;28;20029;-69
2022/04/11 01:47:12;;;;;;;3.28;1.63;;;;;;;;;;5021166;28;20036;-69
2022/04/11 01:49:38;;;;;;;3.78;1.40;;;;;;;;;;5011463;28;20568;-68
2022/04/11 01:52:05;;;;;;;3.35;1.65;;;;;;;;;;5019018;28;20065;-69
2022/04/11 01:54:31;;;;;;;3.05;1.63;;;;;;;;;;5021932;28;20029;-69
2022/04/11 01:56:56;;;;;;;3.35;1.63;;;;;;;;;;5017119;28;20026;-69
2022/04/11 01:59:22;;;;;;;4.38;1.60;;;;;;;;;;5019816;28;20099;-69
2022/04/11 02:01:48;;;;;;;3.35;1.40;;;;;;;;;;5020780;28;20482;-69
2022/04/11 02:04:14;;;;;;;2.17;1.27;;;;;;;;;;5019554;28;20037;-69
2022/04/11 02:06:40;;;;;;;2.05;1.40;;;;;;;;;;5019039;28;20038;-69
2022/04/11 02:09:06;;;;;;;2.65;1.40;;;;;;;;;;5017340;28;20475;-69
2022/04/11 02:11:32;;;;;;;1.90;1.40;;;;;;;;;;5018263;28;20104;-69
2022/04/11 02:13:59;;;;;;;2.90;1.45;;;;;;;;;;5015687;28;20045;-69
2022/04/11 02:16:24;;;;;;;4.32;2.00;;;;;;;;;;5018844;28;20030;-69
2022/04/11 02:18:50;;;;;;;3.72;1.40;;;;;;;;;;5022152;28;20088;-69
2022/04/11 02:21:16;;;;;;;2.00;1.40;;;;;;;;;;5015087;28;20487;-69
2022/04/11 02:23:41;;;;;;;2.58;1.70;;;;;;;;;;5016258;28;20076;-69
2022/04/11 02:26:08;;;;;;;2.60;1.48;;;;;;;;;;5015333;28;20044;-69
2022/04/11 02:28:34;;;;;;;3.38;1.52;;;;;;;;;;5018515;28;20497;-69
2022/04/11 02:30:59;;;;;;;2.47;1.42;;;;;;;;;;5019550;28;20100;-68
2022/04/11 02:33:25;;;;;;;4.50;1.45;;;;;;;;;;5018926;28;20026;-69
2022/04/11 02:35:51;;;;;;;5.40;1.50;;;;;;;;;;5023671;28;20029;-69
2022/04/11 02:38:17;;;;;;;6.28;1.85;;;;;;;;;;5019902;28;20037;-66
2022/04/11 02:40:43;;;;;;;6.63;3.28;;;;;;;;;;5023438;28;20079;-68
2022/04/11 02:43:08;;;;;;;3.78;1.80;;;;;;;;;;5023711;28;20119;-69
2022/04/11 02:45:34;;;;;;;2.97;1.85;;;;;;;;;;5017402;28;20545;-69
2022/04/11 02:47:59;;;;;;;3.45;1.33;;;;;;;;;;5021722;28;20153;-69
2022/04/11 02:50:25;;;;;;;4.68;1.20;;;;;;;;;;5020556;28;20556;-68
2022/04/11 02:52:51;;;;;;;4.18;1.08;;;;;;;;;;5017481;28;20030;-69
2022/04/11 02:55:16;;;;;;;2.13;1.25;;;;;;;;;;5017945;28;20040;-69
2022/04/11 02:57:42;;;;;;;3.78;1.38;;;;;;;;;;5023938;28;20108;-69
2022/04/11 03:00:11;;;;;;;3.03;1.30;;;;;;;;;;5020833;28;20521;-69
2022/04/11 03:02:38;;;;;;;3.53;1.50;;;;;;;;;;5021496;28;20032;-69
2022/04/11 03:05:05;;;;;;;3.75;1.42;;;;;;;;;;5015575;28;20033;-69
2022/04/11 03:07:31;;;;;;;4.53;1.67;;;;;;;;;;5020940;28;20036;-69
2022/04/11 03:09:57;;;;;;;3.15;1.33;;;;;;;;;;5014341;28;20029;-69
2022/04/11 03:12:25;;;;;;;3.72;1.60;;;;;;;;;;5025497;28;20482;-68
2022/04/11 03:14:50;;;;;;;1.98;1.10;;;;;;;;;;5020499;28;20037;-69
2022/04/11 03:17:17;;;;;;;2.63;1.40;;;;;;;;;;5022035;28;20468;-69
2022/04/11 03:19:46;;;;;;;4.85;1.60;;;;;;;;;;5020056;28;20112;-69
2022/04/11 03:22:11;;;;;;;3.92;1.40;;;;;;;;;;5016625;28;20072;-69
2022/04/11 03:24:38;;;;;;;1.55;1.27;;;;;;;;;;5024613;28;20040;-68
2022/04/11 03:27:04;;;;;;;3.20;1.15;;;;;;;;;;5020303;28;20037;-69
2022/04/11 03:29:29;;;;;;;2.65;1.02;;;;;;;;;;5016484;28;20029;-69
2022/04/11 03:31:55;;;;;;;2.42;1.20;;;;;;;;;;5017920;28;20045;-69
2022/04/11 03:34:21;;;;;;;3.10;1.23;;;;;;;;;;5015964;28;20038;-68
2022/04/11 03:36:46;;;;;;;2.17;1.25;;;;;;;;;;5022715;28;20052;-69
2022/04/11 03:39:12;;;;;;;2.92;1.40;;;;;;;;;;5015704;28;20042;-69
2022/04/11 03:41:38;;;;;;;3.55;1.50;;;;;;;;;;5015375;28;20156;-68
2022/04/11 03:44:04;;;;;;;8.57;1.45;;;;;;;;;;5016473;28;20049;-69
2022/04/11 03:46:30;;;;;;;3.67;1.10;;;;;;;;;;5015960;28;20040;-69
2022/04/11 03:48:55;;;;;;;2.10;1.10;;;;;;;;;;5019587;28;20644;-69
2022/04/11 03:51:21;;;;;;;10.57;1.40;;;;;;;;;;5022331;28;20136;-69
2022/04/11 03:53:48;;;;;;;1.30;1.25;;;;;;;;;;5016538;28;20038;-69
2022/04/11 03:56:17;;;;;;;2.38;1.23;;;;;;;;;;5018115;28;20038;-69
2022/04/11 03:58:43;;;;;;;4.13;1.30;;;;;;;;;;5017766;28;20106;-69
2022/04/11 04:01:09;;;;;;;5.22;1.30;;;;;;;;;;5020517;28;20469;-69
2022/04/11 04:03:36;;;;;;;2.35;1.40;;;;;;;;;;5019426;28;20075;-68
2022/04/11 04:06:01;;;;;;;2.15;1.20;;;;;;;;;;5020019;28;20395;-68
2022/04/11 04:08:27;;;;;;;2.45;1.30;;;;;;;;;;5021989;28;20064;-69
2022/04/11 04:10:53;;;;;;;2.13;1.58;;;;;;;;;;5015721;28;20068;-69
2022/04/11 04:13:19;;;;;;;1.50;1.00;;;;;;;;;;5014144;28;20104;-69
2022/04/11 04:15:44;;;;;;;2.00;1.00;;;;;;;;;;5021245;28;20055;-69
2022/04/11 04:18:12;;;;;;;2.28;0.85;;;;;;;;;;5026102;28;20386;-69
2022/04/11 04:20:40;;;;;;;2.80;1.17;;;;;;;;;;5017263;28;20069;-69
2022/04/11 04:23:07;;;;;;;2.78;1.20;;;;;;;;;;5015110;28;20057;-69
2022/04/11 04:25:34;;;;;;;5.68;1.15;;;;;;;;;;5011542;28;20053;-69
2022/04/11 04:28:00;;;;;;;1.33;0.88;;;;;;;;;;5023496;28;20036;-69
2022/04/11 04:30:26;;;;;;;1.23;0.77;;;;;;;;;;5013483;28;20475;-69
2022/04/11 04:32:52;;;;;;;2.28;1.10;;;;;;;;;;5018952;28;20092;-69
2022/04/11 04:35:18;;;;;;;6.50;0.80;;;;;;;;;;5015460;28;20096;-70
2022/04/11 04:37:44;;;;;;;4.20;1.30;;;;;;;;;;5017985;28;20025;-70
2022/04/11 04:40:10;;;;;;;4.35;1.05;;;;;;;;;;5013726;28;20025;-69
2022/04/11 04:42:36;;;;;;;2.30;1.00;;;;;;;;;;5020672;28;20602;-69
2022/04/11 04:45:04;;;;;;;3.53;1.08;;;;;;;;;;5019898;28;20080;-69
2022/04/11 04:47:29;;;;;;;1.95;0.88;;;;;;;;;;5013696;28;20104;-70
2022/04/11 04:49:55;;;;;;;2.38;1.15;;;;;;;;;;5014797;28;20040;-70
2022/04/11 04:52:21;;;;;;;3.38;1.23;;;;;;;;;;5016944;28;20512;-69
2022/04/11 04:54:46;;;;;;;3.05;1.00;;;;;;;;;;5015836;28;20124;-69
2022/04/11 04:57:12;;;;;;;1.42;1.00;;;;;;;;;;5011027;28;20029;-69
2022/04/11 04:59:38;;;;;;;1.38;0.80;;;;;;;;;;5018471;28;20029;-67
2022/04/11 05:02:04;;;;;;;1.00;0.85;;;;;;;;;;5015030;28;20061;-69
2022/04/11 05:04:29;;;;;;;2.08;0.90;;;;;;;;;;5016875;28;20076;-70
2022/04/11 05:06:55;;;;;;;2.05;0.80;;;;;;;;;;5020002;28;20478;-69
2022/04/11 05:09:21;;;;;;;0.70;0.70;;;;;;;;;;5018450;28;20385;-69
2022/04/11 05:11:47;;;;;;;1.27;1.00;;;;;;;;;;5018919;28;20104;-69
2022/04/11 05:14:12;;;;;;;2.17;1.15;;;;;;;;;;5016301;28;20115;-69
2022/04/11 05:16:38;;;;;;;1.77;0.82;;;;;;;;;;5011043;28;20068;-69
2022/04/11 05:19:04;;;;;;;1.23;1.05;;;;;;;;;;5014848;28;20026;-69
2022/04/11 05:21:30;;;;;;;2.13;1.13;;;;;;;;;;5011280;28;20638;-69
2022/04/11 05:23:56;;;;;;;2.42;0.90;;;;;;;;;;5019838;28;20033;-70
2022/04/11 05:26:22;;;;;;;1.30;1.00;;;;;;;;;;5014989;28;20033;-69
2022/04/11 05:28:49;;;;;;;4.25;1.42;;;;;;;;;;5016942;28;20033;-69
2022/04/11 05:31:15;;;;;;;3.63;1.23;;;;;;;;;;5011909;28;20474;-69
2022/04/11 05:33:41;;;;;;;1.42;1.08;;;;;;;;;;5014163;28;20371;-69
2022/04/11 05:36:07;;;;;;;3.17;1.08;;;;;;;;;;5015991;28;20110;-69
2022/04/11 05:38:33;;;;;;;3.67;1.40;;;;;;;;;;5014809;28;20152;-69
2022/04/11 05:40:58;;;;;;;2.35;1.20;;;;;;;;;;5013847;28;20060;-68
2022/04/11 05:43:24;;;;;;;2.50;1.25;;;;;;;;;;5015860;28;20126;-69
2022/04/11 05:45:50;;;;;;;2.53;1.10;;;;;;;;;;5017973;28;20041;-69
2022/04/11 05:48:16;;;;;;;3.40;1.30;;;;;;;;;;5019578;28;20045;-69
2022/04/11 05:50:41;;;;;;;5.45;1.08;;;;;;;;;;5020021;28;20030;-69
2022/04/11 05:53:07;;;;;;;5.22;1.17;;;;;;;;;;5021728;28;20478;-69
2022/04/11 05:55:33;;;;;;;1.35;1.00;;;;;;;;;;5016157;28;20083;-69
2022/04/11 05:57:59;;;;;;;2.42;1.15;;;;;;;;;;5018634;28;20130;-69
2022/04/11 06:00:25;;;;;;;4.65;1.33;;;;;;;;;;5018056;28;20501;-69
2022/04/11 06:02:51;;;;;;;7.88;1.58;;;;;;;;;;5013650;28;20066;-69
2022/04/11 06:05:17;;;;;;;6.20;1.20;;;;;;;;;;5021873;28;20033;-70
2022/04/11 06:07:43;;;;;;;2.25;1.00;;;;;;;;;;5017116;28;20105;-69
2022/04/11 06:10:10;;;;;;;3.55;1.15;;;;;;;;;;5016763;28;20877;-69
2022/04/11 06:12:36;;;;;;;5.45;1.30;;;;;;;;;;5015914;28;20115;-69
2022/04/11 06:15:03;;;;;;;3.60;1.30;;;;;;;;;;5019187;28;20041;-69
2022/04/11 06:17:29;;;;;;;3.03;1.30;;;;;;;;;;5022830;28;20030;-69
2022/04/11 06:19:56;;;;;;;1.42;0.95;;;;;;;;;;5021168;28;20487;-69
2022/04/11 06:22:23;;;;;;;4.32;1.50;;;;;;;;;;5026338;28;20032;-70
2022/04/11 06:24:49;;;;;;;5.50;1.20;;;;;;;;;;5019621;28;20043;-69
2022/04/11 06:27:15;;;;;;;3.85;1.20;;;;;;;;;;5030352;28;20033;-69
2022/04/11 06:29:42;;;;;;;2.33;1.08;;;;;;;;;;5021716;28;20502;-69
2022/04/11 06:32:08;;;;;;;3.72;1.35;;;;;;;;;;5025702;28;20026;-69
2022/04/11 06:34:37;;;;;;;3.85;1.30;;;;;;;;;;5021874;28;20034;-70
2022/04/11 06:37:04;;;;;;;6.00;1.33;;;;;;;;;;5014701;28;20123;-69
2022/04/11 06:39:30;;;;;;;2.47;1.35;;;;;;;;;;5025254;28;20040;-69
2022/04/11 06:41:56;;;;;;;2.85;1.30;;;;;;;;;;5019440;28;20091;-69
2022/04/11 06:44:22;;;;;;;3.25;1.42;;;;;;;;;;5016858;28;20133;-68
2022/04/11 06:46:48;;;;;;;3.17;1.33;;;;;;;;;;5021114;28;20021;-69
2022/04/11 06:49:14;;;;;;;13.73;1.40;;;;;;;;;;5016087;28;20024;-69
2022/04/11 06:51:40;;;;;;;6.55;1.13;;;;;;;;;;5018933;28;20104;-69
2022/04/11 06:54:06;;;;;;;4.30;1.00;;;;;;;;;;5021429;28;20041;-70
2022/04/11 06:56:32;;;;;;;5.97;1.00;;;;;;;;;;5016661;28;20046;-69
2022/04/11 06:58:58;;;;;;;5.13;1.10;;;;;;;;;;5015889;28;20029;-64
2022/04/11 07:01:24;;;;;;;6.35;1.20;;;;;;;;;;5020465;28;20037;-70
2022/04/11 07:03:51;;;;;;;7.05;1.17;;;;;;;;;;5022696;28;20037;-70
2022/04/11 07:06:17;;;;;;;4.07;1.23;;;;;;;;;;5024872;28;20490;-70
2022/04/11 07:08:42;;;;;;;2.63;0.82;;;;;;;;;;5018581;28;20044;-69
2022/04/11 07:11:08;;;;;;;3.67;1.25;;;;;;;;;;5017253;28;20037;-69
2022/04/11 07:13:34;;;;;;;10.43;1.67;;;;;;;;;;5018028;28;20393;-69
2022/04/11 07:16:01;;;;;;;6.78;1.67;;;;;;;;;;5021977;28;20077;-70
2022/04/11 07:18:28;;;;;;;7.38;1.40;;;;;;;;;;5022662;28;20036;-70
2022/04/11 07:20:54;;;;;;;2.15;1.02;;;;;;;;;;5018937;28;20109;-69
2022/04/11 07:23:20;;;;;;;4.70;1.55;;;;;;;;;;5018148;28;20379;-69
2022/04/11 07:25:46;;;;;;;8.20;1.35;;;;;;;;;;5015511;28;20028;-69
2022/04/11 07:28:12;;;;;;;1.85;1.10;;;;;;;;;;5014087;28;20044;-69
2022/04/11 07:30:38;;;;;;;4.60;0.95;;;;;;;;;;5017573;28;20041;-70
2022/04/11 07:33:04;;;;;;;7.15;1.42;;;;;;;;;;5020035;28;20375;-69
2022/04/11 07:35:30;;;;;;;5.38;1.17;;;;;;;;;;5019948;28;20029;-70
2022/04/11 07:37:57;;;;;;;4.55;1.02;;;;;;;;;;5018175;28;20930;-69
2022/04/11 07:40:25;;;;;;;5.55;1.80;;;;;;;;;;5015091;28;20037;-69
2022/04/11 07:42:51;;;;;;;5.90;1.52;;;;;;;;;;5017913;28;20045;-69
2022/04/11 07:45:21;;;;;;;5.00;1.67;;;;;;;;;;5019614;28;20364;-70
2022/04/11 07:47:47;;;;;;;4.43;1.20;;;;;;;;;;5019877;28;20639;-69
2022/04/11 07:50:14;;;;;;;5.22;1.70;;;;;;;;;;5033245;28;20039;-69
2022/04/11 07:52:41;;;;;;;2.50;1.17;;;;;;;;;;5018161;28;20076;-69
2022/04/11 07:55:08;;;;;;;8.38;1.13;;;;;;;;;;5015551;28;20033;-69
2022/04/11 07:57:34;;;;;;;3.08;1.27;;;;;;;;;;5022600;28;20399;-69
2022/04/11 08:00:00;;;;;;;4.18;1.00;;;;;;;;;;5026934;28;20038;-69
2022/04/11 08:02:27;;;;;;;5.20;1.52;;;;;;;;;;5015130;28;20034;-69
2022/04/11 08:04:53;;;;;;;4.28;1.27;;;;;;;;;;5020775;28;20037;-69
2022/04/11 08:07:20;;;;;;;4.00;1.20;;;;;;;;;;5018721;28;20030;-69
2022/04/11 08:09:46;;;;;;;8.00;1.40;;;;;;;;;;5021784;28;20029;-70
2022/04/11 08:12:12;;;;;;;4.78;1.40;;;;;;;;;;5017198;28;20040;-68
2022/04/11 08:14:37;;;;;;;8.13;1.27;;;;;;;;;;5016690;28;20038;-69
2022/04/11 08:17:03;;;;;;;4.95;1.88;;;;;;;;;;5018266;28;20738;-69
2022/04/11 08:19:32;;;;;;;2.72;1.42;;;;;;;;;;5016620;28;20394;-69
2022/04/11 08:21:58;;;;;;;5.47;1.55;;;;;;;;;;5015209;28;20041;-68
2022/04/11 08:24:24;;;;;;;3.67;1.20;;;;;;;;;;5017439;28;20025;-70
2022/04/11 08:26:50;;;;;;;3.72;1.00;;;;;;;;;;5020369;28;20120;-70
2022/04/11 08:29:17;;;;;;;7.70;1.23;;;;;;;;;;5017639;28;20441;-69
2022/04/11 08:31:44;;;;;;;5.40;1.60;;;;;;;;;;5020996;28;20061;-70
2022/04/11 08:34:09;;;;;;;2.90;1.52;;;;;;;;;;5018669;28;20066;-69
2022/04/11 08:36:35;;;;;;;4.07;1.10;;;;;;;;;;5023966;28;20418;-69
2022/04/11 08:39:02;;;;;;;4.43;1.30;;;;;;;;;;5017176;28;20496;-58
2022/04/11 08:41:33;;;;;;;6.30;1.90;;;;;;;;;;5026279;28;20095;-70
2022/04/11 08:44:01;;;;;;;4.72;1.40;;;;;;;;;;5020625;28;20059;-70
2022/04/11 08:46:29;;;;;;;3.42;1.20;;;;;;;;;;5019869;28;20030;-69
2022/04/11 08:48:55;;;;;;;1.55;1.15;;;;;;;;;;5024023;28;20201;-69
2022/04/11 08:51:21;;;;;;;2.15;1.00;;;;;;;;;;5017660;28;20049;-69
2022/04/11 08:53:47;;;;;;;4.13;1.25;;;;;;;;;;5015469;28;20564;-70
2022/04/11 08:56:13;;;;;;;4.30;1.52;;;;;;;;;;5015060;28;20033;-70
2022/04/11 08:58:38;;;;;;;6.03;1.52;;;;;;;;;;5017053;28;20541;-69
2022/04/11 09:01:04;;;;;;;4.25;1.60;;;;;;;;;;5017018;28;20041;-69
2022/04/11 09:03:30;;;;;;;8.63;1.27;;;;;;;;;;5029832;28;20471;-69
2022/04/11 09:06:09;;;;;;;4.35;1.40;;;;;;;;;;5016260;28;20041;-69
2022/04/11 09:09:02;;;;;;;7.57;1.45;;;;;;;;;;5013531;28;20382;-69
2022/04/11 09:11:33;;;;;;;1.27;1.00;;;;;;;;;;5014195;28;20072;-69
2022/04/11 09:14:01;;;;;;;4.10;1.33;;;;;;;;;;5012640;28;20040;-69
2022/04/11 09:16:28;;;;;;;5.55;1.23;;;;;;;;;;5016591;28;20030;-69
2022/04/11 09:18:55;;;;;;;3.15;1.33;;;;;;;;;;5020785;28;20026;-68
2022/04/11 09:21:23;;;;;;;4.25;1.30;;;;;;;;;;5022511;28;20030;-69
2022/04/11 09:23:50;;;;;;;3.67;1.30;;;;;;;;;;5019548;28;20483;-69
2022/04/11 09:26:23;;;;;;;2.90;1.20;;;;;;;;;;5013976;28;20608;-69
2022/04/11 09:29:02;;;;;;;8.88;1.75;;;;;;;;;;5013417;28;20052;-70
2022/04/11 09:31:29;;;;;;;6.20;1.20;;;;;;;;;;5015581;28;20048;-69
2022/04/11 09:33:55;;;;;;;4.40;1.88;;;;;;;;;;5020549;28;20187;-69
2022/04/11 09:36:21;;;;;;;1.15;0.98;;;;;;;;;;5022456;28;20499;-70
2022/04/11 09:38:58;;;;;;;4.85;1.00;;;;;;;;;;5018641;28;20021;-70
2022/04/11 09:41:28;;;;;;;3.33;1.08;;;;;;;;;;5017162;28;20038;-69
2022/04/11 09:43:54;;;;;;;4.82;1.38;;;;;;;;;;5033069;28;20037;-69
2022/04/11 09:46:20;;;;;;;3.20;1.30;;;;;;;;;;5019095;28;20414;-68
2022/04/11 09:48:46;;;;;;;4.75;1.50;;;;;;;;;;5013579;28;20048;-69
2022/04/11 09:51:13;;;;;;;5.20;1.30;;;;;;;;;;5017996;28;20034;-68
2022/04/11 09:53:39;;;;;;;5.05;1.23;;;;;;;;;;5018234;28;20068;-68
2022/04/11 09:56:08;;;;;;;3.85;1.50;;;;;;;;;;5018886;28;20590;-68
2022/04/11 09:58:35;;;;;;;7.25;1.00;;;;;;;;;;5025489;28;20017;-68
2022/04/11 10:01:02;;;;;;;2.42;1.27;;;;;;;;;;5014284;28;20105;-69
2022/04/11 10:03:30;;;;;;;16.48;1.35;;;;;;;;;;5015410;28;20076;-69
2022/04/11 10:05:57;;;;;;;7.20;1.25;;;;;;;;;;5024807;28;20044;-69
2022/04/11 10:08:25;;;;;;;7.70;1.35;;;;;;;;;;5022535;28;20029;-68
2022/04/11 10:10:52;;;;;;;7.57;1.35;;;;;;;;;;5024792;28;20029;-68
2022/04/11 10:13:18;;;;;;;6.15;1.20;;;;;;;;;;5013788;28;20029;-69
2022/04/11 10:15:46;;;;;;;9.10;1.40;;;;;;;;;;5018106;28;20041;-68
2022/04/11 10:18:26;;;;;;;2.80;1.10;;;;;;;;;;5020297;28;20029;-69
2022/04/11 10:20:57;;;;;;;4.32;1.15;;;;;;;;;;5013347;28;20435;-68
2022/04/11 10:23:47;;;;;;;3.15;1.10;;;;;;;;;;5023833;28;20076;-69
2022/04/11 10:26:18;;;;;;;6.80;1.20;;;;;;;;;;5019052;28;20056;-68
2022/04/11 10:28:51;;;;;;;4.15;1.25;;;;;;;;;;5023284;28;20034;-69
2022/04/11 10:31:17;;;;;;;2.65;1.13;;;;;;;;;;5017844;28;20512;-69
2022/04/11 10:33:44;;;;;;;3.45;1.00;;;;;;;;;;5024924;28;20108;-69
2022/04/11 10:36:34;;;;;;;2.97;1.20;;;;;;;;;;5018448;28;20034;-68
2022/04/11 10:39:14;;;;;;;8.25;1.40;;;;;;;;;;5015987;28;20088;-66
2022/04/11 10:41:55;;;;;;;3.30;1.17;;;;;;;;;;5018077;28;20065;-69
2022/04/11 10:44:46;;;;;;;2.90;1.13;;;;;;;;;;5020050;28;20125;-68
2022/04/11 10:47:11;;;;;;;6.22;1.75;;;;;;;;;;5013029;28;20042;-68
2022/04/11 10:49:58;;;;;;;3.65;1.20;;;;;;;;;;5016550;28;20048;-69
2022/04/11 10:52:27;;;;;;;8.32;1.40;;;;;;;;;;5021813;28;20116;-68
2022/04/11 10:54:57;;;;;;;4.10;1.40;;;;;;;;;;5023272;28;20578;-68
2022/04/11 10:57:39;;;;;;;6.30;1.95;;;;;;;;;;5017365;28;20440;-69
2022/04/11 11:00:13;;;;;;;5.53;1.33;;;;;;;;;;5017141;28;20041;-69
2022/04/11 11:02:48;;;;;;;4.28;1.40;;;;;;;;;;5017117;28;20418;-68
2022/04/11 11:05:30;;;;;;;4.82;1.30;;;;;;;;;;5017262;28;20034;-69
2022/04/11 11:08:11;;;;;;;3.33;1.20;;;;;;;;;;5018898;28;20107;-68
2022/04/11 11:10:42;;;;;;;6.60;1.38;;;;;;;;;;5015883;28;20434;-68
2022/04/11 11:13:30;;;;;;;1.63;1.02;;;;;;;;;;5018012;28;20033;-68
2022/04/11 11:16:01;;;;;;;5.88;1.20;;;;;;;;;;5021496;28;20041;-69
2022/04/11 11:18:47;;;;;;;3.08;1.42;;;;;;;;;;5018943;28;20688;-69
2022/04/11 11:21:14;;;;;;;10.57;2.15;;;;;;;;;;5018395;28;20029;-69
2022/04/11 11:23:40;;;;;;;4.55;1.38;;;;;;;;;;5020733;28;20558;-69
2022/04/11 11:26:13;;;;;;;3.15;1.08;;;;;;;;;;5014544;28;20108;-70
2022/04/11 11:28:44;;;;;;;2.40;1.00;;;;;;;;;;5015489;28;20038;-69
2022/04/11 11:31:10;;;;;;;6.45;1.40;;;;;;;;;;5013847;28;20022;-69
2022/04/11 11:33:36;;;;;;;5.95;1.40;;;;;;;;;;5021864;28;20034;-68
2022/04/11 11:36:03;;;;;;;4.22;1.55;;;;;;;;;;5016590;28;20042;-68
2022/04/11 11:38:32;;;;;;;10.15;1.73;;;;;;;;;;5015127;28;20052;-69
2022/04/11 11:41:06;;;;;;;2.90;1.08;;;;;;;;;;5017551;28;20045;-69
2022/04/11 11:43:31;;;;;;;9.80;1.67;;;;;;;;;;5014560;28;20041;-68
2022/04/11 11:46:02;;;;;;;8.93;1.95;;;;;;;;;;5019812;28;20033;-69
2022/04/11 11:48:31;;;;;;;5.75;2.00;;;;;;;;;;5020821;28;20036;-68
2022/04/11 11:51:00;;;;;;;11.77;2.50;;;;;;;;;;5019015;28;20282;-69
2022/04/11 11:53:39;;;;;;;10.82;1.80;;;;;;;;;;5014926;28;20034;-67
2022/04/11 11:56:07;;;;;;;10.98;1.65;;;;;;;;;;5026361;28;20163;-68
2022/04/11 11:58:40;;;;;;;7.00;1.98;;;;;;;;;;5019072;28;20098;-68
2022/04/11 12:01:10;;;;;;;6.55;1.70;;;;;;;;;;5013714;28;20057;-68
2022/04/11 12:06:27;;;;;;;7.47;1.75;;;;;;;;;;5011601;28;20030;-68
2022/04/11 12:08:57;;;;;;;4.70;1.33;;;;;;;;;;5028498;28;20053;-68
2022/04/11 12:11:27;;;;;;;9.02;2.20;;;;;;;;;;5014346;28;20411;-68
2022/04/11 12:14:07;;;;;;;4.43;1.40;;;;;;;;;;5017514;28;20088;-68
2022/04/11 12:16:35;;;;;;;13.18;1.85;;;;;;;;;;5022491;28;20079;-68
2022/04/11 12:19:03;;;;;;;4.50;1.60;;;;;;;;;;5014688;28;20021;-68
2022/04/11 12:21:36;;;;;;;6.80;1.50;;;;;;;;;;5019563;28;20112;-68
2022/04/11 12:24:04;;;;;;;7.25;2.10;;;;;;;;;;5019742;28;20026;-69
2022/04/11 12:26:36;;;;;;;6.25;2.05;;;;;;;;;;5017274;28;20036;-68
2022/04/11 12:29:10;;;;;;;3.67;1.60;;;;;;;;;;5016252;28;20765;-68
2022/04/11 12:31:38;;;;;;;5.93;1.60;;;;;;;;;;5014203;28;20026;-68
2022/04/11 12:34:11;;;;;;;9.77;1.75;;;;;;;;;;5014875;28;20494;-68
2022/04/11 12:36:55;;;;;;;5.05;1.70;;;;;;;;;;5019818;28;20053;-69
2022/04/11 12:39:21;;;;;;;5.90;1.70;;;;;;;;;;5016025;28;20363;-68
2022/04/11 12:41:49;;;;;;;12.32;2.17;;;;;;;;;;5020610;28;20031;-69
2022/04/11 12:44:17;;;;;;;13.18;1.83;;;;;;;;;;5014964;28;20046;-68
2022/04/11 12:46:58;;;;;;;5.50;1.67;;;;;;;;;;5017708;28;20116;-68
2022/04/11 12:49:24;;;;;;;10.57;1.80;;;;;;;;;;5016031;28;20033;-68
2022/04/11 12:51:57;;;;;;;5.47;1.50;;;;;;;;;;5016792;28;20494;-69
2022/04/11 12:54:23;;;;;;;8.43;1.52;;;;;;;;;;5019321;28;20104;-69
2022/04/11 12:56:52;;;;;;;6.55;1.33;;;;;;;;;;5013522;28;20157;-68
2022/04/11 12:59:29;;;;;;;11.15;1.83;;;;;;;;;;5014228;28;20044;-69
2022/04/11 13:02:02;;;;;;;6.25;1.48;;;;;;;;;;5012050;28;20470;-68
2022/04/11 13:04:28;;;;;;;10.25;1.60;;;;;;;;;;5012054;28;20046;-68
2022/04/11 13:06:53;;;;;;;4.90;1.50;;;;;;;;;;5011008;28;20040;-69
2022/04/11 13:09:21;;;;;;;8.77;1.52;;;;;;;;;;5016157;28;20045;-69
2022/04/11 13:11:49;;;;;;;7.03;1.83;;;;;;;;;;5014366;28;20115;-68
2022/04/11 13:14:15;;;;;;;7.82;2.33;;;;;;;;;;5018424;28;20037;-68
2022/04/11 13:19:25;;;;;;;13.20;2.60;;;;;;;;;;5021437;28;20032;-68
2022/04/11 13:21:51;;;;;;;10.02;2.83;;;;;;;;;;5024547;28;20037;-68
2022/04/11 13:24:17;;;;;;;8.35;1.77;;;;;;;;;;5023568;28;20030;-68
2022/04/11 13:26:43;;;;;;;3.13;1.90;;;;;;;;;;5023034;28;20395;-68
2022/04/11 13:29:09;;;;;;;7.32;2.53;;;;;;;;;;5018161;28;20032;-69
2022/04/11 13:31:35;;;;;;;9.52;3.83;;;;;;;;;;5016845;28;20037;-68
2022/04/11 13:34:01;;;;;;;11.05;3.20;;;;;;;;;;5010706;28;20060;-68
2022/04/11 13:36:27;;;;;;;9.07;2.65;;;;;;;;;;5015238;28;20352;-68
2022/04/11 13:38:53;;;;;;;16.33;3.17;;;;;;;;;;5014510;28;20471;-68
2022/04/11 13:41:19;;;;;;;5.97;1.63;;;;;;;;;;5012292;28;20624;-69
2022/04/11 13:43:45;;;;;;;10.50;2.17;;;;;;;;;;5012874;28;20088;-69
2022/04/11 13:46:10;;;;;;;6.43;1.63;;;;;;;;;;5011244;28;20056;-69
2022/04/11 13:48:36;;;;;;;6.55;1.67;;;;;;;;;;5012845;28;20470;-68
2022/04/11 13:51:02;;;;;;;10.68;1.30;;;;;;;;;;5012432;28;20042;-68
2022/04/11 13:53:29;;;;;;;5.25;1.40;;;;;;;;;;5017210;28;20029;-68
2022/04/11 13:55:58;;;;;;;5.15;1.83;;;;;;;;;;5018879;28;20386;-68
2022/04/11 13:58:23;;;;;;;4.95;1.63;;;;;;;;;;5013298;28;20383;-69
2022/04/11 14:00:49;;;;;;;11.73;1.58;;;;;;;;;;5016539;28;20025;-68
2022/04/11 14:03:15;;;;;;;2.88;1.30;;;;;;;;;;5017076;28;20034;-68
2022/04/11 14:05:42;;;;;;;6.10;1.10;;;;;;;;;;5015747;28;20112;-69
2022/04/11 14:08:10;;;;;;;7.07;1.50;;;;;;;;;;5012969;28;20061;-69
2022/04/11 14:10:36;;;;;;;8.57;1.65;;;;;;;;;;5012149;28;20144;-69
2022/04/11 14:13:02;;;;;;;16.15;1.50;;;;;;;;;;5016189;28;20029;-69
2022/04/11 14:15:28;;;;;;;12.93;1.25;;;;;;;;;;5012120;28;20042;-68
2022/04/11 14:17:54;;;;;;;14.18;1.58;;;;;;;;;;5009856;28;20026;-68
2022/04/11 14:20:20;;;;;;;8.90;0.98;;;;;;;;;;5015742;28;20029;-68
2022/04/11 14:22:46;;;;;;;7.05;1.50;;;;;;;;;;5017736;28;20022;-69
2022/04/11 14:25:12;;;;;;;8.65;1.77;;;;;;;;;;5020051;28;20085;-68
2022/04/11 14:27:38;;;;;;;4.05;1.08;;;;;;;;;;5013827;28;20064;-69
2022/04/11 14:30:04;;;;;;;8.48;1.10;;;;;;;;;;5015212;28;20029;-69
2022/04/11 14:32:31;;;;;;;9.00;1.50;;;;;;;;;;5018954;28;20040;-69
2022/04/11 14:34:57;;;;;;;3.83;1.02;;;;;;;;;;5016929;28;20509;-68
2022/04/11 14:37:22;;;;;;;3.67;0.77;;;;;;;;;;5015990;28;20045;-69
2022/04/11 14:39:48;;;;;;;6.18;1.50;;;;;;;;;;5022199;28;20057;-69
2022/04/11 14:42:14;;;;;;;11.38;1.20;;;;;;;;;;5018190;28;20037;-69
2022/04/11 14:44:39;;;;;;;6.30;1.55;;;;;;;;;;5022508;28;20041;-68
2022/04/11 14:47:05;;;;;;;8.50;1.30;;;;;;;;;;5014963;28;20083;-69
2022/04/11 14:49:33;;;;;;;7.45;0.95;;;;;;;;;;5020201;28;20041;-69
2022/04/11 14:51:59;;;;;;;4.70;1.20;;;;;;;;;;5014255;28;20057;-69